ADDS METAR Data INFO
IDs: Format: Raw Decoded Include TAF

Data at: 0212 UTC 17 Aug 2018

PAUT 170155Z AUTO 00000KT 10SM DZ OVC037 08/06 A2996 RMK AO2 T00820060
PAUT 170135Z AUTO 31003KT 10SM RA BKN039 OVC046 08/06 A2996 RMK AO2 T00830060
PAUT 170115Z AUTO 24004KT 10SM SCT037 OVC048 09/06 A2996 RMK AO2 T00900060
PAUT 170055Z AUTO 25005KT 10SM SCT025 BKN037 OVC050 09/06 A2998 RMK AO2 T00930058
PAUT 170035Z AUTO 28003KT 10SM SCT025 BKN040 OVC046 10/06 A2996 RMK AO2 T00980059
PAUT 170015Z AUTO 00000KT 10SM SCT019 SCT038 OVC045 10/06 A2996 RMK AO2 T00950056
PAUT 162355Z AUTO 00000KT 10SM SCT019 SCT036 OVC043 09/06 A2996 RMK AO2 60001 T00920061 10095 20076
PAUT 162335Z AUTO 00000KT 10SM OVC034 09/07 A2998 RMK AO2 T00870069
PAUT 162315Z AUTO 00000KT 10SM SCT006 OVC034 09/07 A2997 RMK AO2 T00850071
PAUT 162255Z AUTO 00000KT 5SM -RA OVC030 08/07 A2998 RMK AO2 P0001 T00810067
PAUT 162235Z AUTO 23006KT 7SM DZ OVC030 08/07 A2998 RMK AO2 T00830065
PAUT 162215Z AUTO 00000KT 7SM -RA BKN032 OVC040 09/06 A2998 RMK AO2 T00860063
PAUT 162155Z AUTO 21005KT 10SM -RA OVC038 09/07 A2997 RMK AO2 T00920065
PAUT 162135Z AUTO 22007KT 10SM OVC040 09/06 A2999 RMK AO2 T00900061
PAUT 162115Z AUTO 22006KT 10SM SCT036 OVC045 09/06 A2997 RMK AO2 T00910060
PAUT 162055Z AUTO 18008KT 10SM SCT032 BKN042 OVC048 09/06 A2998 RMK AO2 T00910063
PAUT 162035Z AUTO 19007KT 10SM BKN047 OVC060 09/06 A2998 RMK AO2 T00880059
PAUT 162015Z AUTO 14004KT 10SM SCT033 OVC042 08/06 A2998 RMK AO2 T00810063
PAUT 161955Z AUTO 00000KT 5SM DZ SCT016 BKN032 OVC039 08/06 A2998 RMK AO2 T00800062
PAUT 161935Z AUTO 33004KT 7SM RA SCT015 OVC023 08/06 A2998 RMK AO2 T00780060
PAUT 161915Z AUTO 20004KT 10SM SCT016 BKN025 OVC043 09/06 A2998 RMK AO2 T00870056
PAUT 161855Z AUTO 00000KT 10SM SCT028 SCT036 OVC043 09/05 A2998 RMK AO2 T00860053
PAUT 161835Z AUTO 00000KT 10SM SCT014 BKN037 OVC045 09/06 A2998 RMK AO2 T00850057
PAUT 161815Z AUTO 22004KT 10SM SCT014 BKN042 OVC050 08/06 A2998 RMK AO2 T00840059
PAUT 161755Z AUTO 00000KT 10SM OVC040 08/06 A2998 RMK AO2 T00770059 10077 20056
PAUT 161735Z AUTO 00000KT 10SM -RA OVC038 07/06 A2998 RMK AO2 T00730058
PAUT 161715Z AUTO 27003KT 10SM SCT030 OVC038 07/06 A2999 RMK AO2 T00710057
PAUT 161655Z AUTO 27005KT 10SM DZ OVC032 07/06 A2999 RMK AO2 T00690058
PAUT 161635Z AUTO 21004KT 10SM BKN034 BKN039 OVC049 07/06 A2999 RMK AO2 T00680060
PAUT 161615Z AUTO 20006KT 10SM SCT034 SCT041 BKN049 06/06 A2998 RMK AO2 T00630056
PAUT 161555Z AUTO 19004KT 10SM SCT034 SCT049 06/05 A2998 RMK AO2 T00600052
PAUT 161535Z AUTO 22003KT 10SM BKN028 OVC034 07/06 A2999 RMK AO2 T00660057
PAUT 161515Z AUTO 25005KT 7SM DZ BKN028 OVC034 07/06 A2999 RMK AO2 T00700059
PAUT 161455Z AUTO 21006KT 10SM SCT028 BKN034 OVC041 07/06 A2999 RMK AO2 T00680058
PAUT 161435Z AUTO 21005KT 10SM SCT036 OVC046 07/06 A3000 RMK AO2 T00690056
PAUT 161415Z AUTO 21005KT 10SM SCT024 SCT033 OVC044 07/06 A3000 RMK AO2 T00700056
PAUT 161355Z AUTO 23006KT 10SM BKN024 OVC034 07/06 A3001 RMK AO2 T00710057
PAUT 161335Z AUTO 24004KT 10SM SCT018 BKN024 OVC037 07/06 A3000 RMK AO2 T00700057
PAUT 161315Z AUTO 23005KT 10SM SCT018 SCT026 OVC041 07/06 A3000 RMK AO2 T00700058
PAUT 161255Z AUTO 00000KT 10SM OVC041 07/06 A3000 RMK AO2 T00700060
PAUT 161235Z AUTO 21005KT 10SM OVC041 07/06 A3001 RMK AO2 T00680060
PAUT 161215Z AUTO 22006KT 10SM SCT028 SCT034 OVC043 07/06 A3001 RMK AO2 T00680059
PAUT 161155Z AUTO 23005KT 10SM SCT023 BKN032 OVC045 07/06 A3001 RMK AO2 T00680060 10081 20061
PAUT 161135Z AUTO 25005KT 10SM SCT028 BKN036 OVC045 07/06 A3002 RMK AO2 T00700057
PAUT 161115Z AUTO 25006KT 10SM BKN028 OVC034 07/06 A3002 RMK AO2 T00710056
PAUT 161055Z AUTO 22005KT 10SM SCT023 OVC036 07/05 A3002 RMK AO2 T00710054
PAUT 161035Z AUTO 23005KT 10SM SCT023 SCT028 OVC036 07/05 A3002 RMK AO2 T00720050
PAUT 161015Z AUTO 22004KT 10SM OVC025 07/05 A3002 RMK AO2 T00680050
PAUT 160955Z AUTO 23005KT 10SM OVC025 07/05 A3002 RMK AO2 T00730052
PAUT 160935Z AUTO 25006KT 10SM BKN027 OVC036 07/05 A3002 RMK AO2 T00730052
PAUT 160915Z AUTO 25006KT 10SM BKN029 BKN038 OVC044 07/05 A3002 RMK AO2 T00720050
PAUT 160855Z AUTO 24005KT 10SM SCT025 OVC042 07/05 A3003 RMK AO2 T00740047 401000061
PAUT 160835Z AUTO 23004KT 10SM OVC042 07/05 A3003 RMK AO2 T00710050
PAUT 160815Z AUTO 00000KT 10SM SCT040 BKN046 07/05 A3003 RMK AO2 T00670045
PAUT 160755Z AUTO 00000KT 10SM SCT024 SCT042 SCT048 07/05 A3003 RMK AO2 T00710047
PAUT 160735Z AUTO 23006KT 10SM BKN040 07/05 A3003 RMK AO2 T00730050
PAUT 160715Z AUTO 26011KT 10SM BKN040 OVC047 08/05 A3003 RMK AO2 T00800049
PAUT 160655Z AUTO 28017KT 10SM SCT040 OVC049 08/05 A3003 RMK AO2 T00800050
PAUT 160635Z AUTO 29014G17KT 10SM BKN040 OVC046 08/05 A3002 RMK AO2 T00800051
PAUT 160615Z AUTO 30017KT 10SM OVC044 08/05 A3002 RMK AO2 T00800053
PAUT 160555Z AUTO 29012G20KT 10SM OVC044 08/05 A3002 RMK AO2 T00790050 10095 20075
PAUT 160535Z AUTO 29008KT 10SM OVC042 09/05 A3002 RMK AO2 T00850047
PAUT 160515Z AUTO 29013KT 10SM OVC042 09/05 A3002 RMK AO2 T00870047
PAUT 160455Z AUTO 30014KT 10SM SCT028 BKN048 08/05 A3002 RMK AO2 T00820052
PAUT 160435Z AUTO 30011G22KT 10SM SCT046 09/06 A3002 RMK AO2 T00870056
PAUT 160415Z AUTO 30016G22KT 10SM SCT029 SCT041 09/06 A3002 RMK AO2 T00890055
PAUT 160355Z AUTO 30017G21KT 10SM SCT042 09/06 A3002 RMK AO2 T00880058
PAUT 160335Z AUTO 31015G21KT 10SM SCT043 09/06 A3002 RMK AO2 T00900059
PAUT 160315Z AUTO 30017G21KT 10SM SCT033 OVC039 09/06 A3002 RMK AO2 T00850057
PAUT 160255Z AUTO 30017G21KT 10SM BKN035 OVC041 09/06 A3002 RMK AO2 T00850057
PAUT 160235Z AUTO 30016KT 10SM OVC035 08/06 A3003 RMK AO2 T00840055
PAUT 160215Z AUTO 30013G17KT 10SM BKN035 09/06 A3003 RMK AO2 T00860058
PAUT 160155Z AUTO 29015G21KT 10SM SCT033 BKN039 BKN047 08/06 A3003 RMK AO2 T00820057
PAUT 160135Z AUTO 30016KT 10SM SCT037 SCT045 09/06 A3003 RMK AO2 T00850064
PAUT 160115Z AUTO 31012KT 10SM SCT024 BKN037 OVC045 08/07 A3003 RMK AO2 T00810065
PAUT 160055Z AUTO 30013G24KT 5SM BR SCT035 BKN041 08/06 A3004 RMK AO2 T00770062
PAUT 160035Z AUTO 30020KT 10SM SCT035 SCT044 09/06 A3003 RMK AO2 T00870061
PAUT 160015Z AUTO 30011KT 10SM BKN042 09/06 A3003 RMK AO2 T00930062
PAUT 152355Z AUTO 31013G20KT 10SM BKN039 BKN044 09/06 A3003 RMK AO2 T00920062 10100 20075
PAUT 152335Z AUTO 31013G21KT 10SM BKN041 OVC046 09/06 A3003 RMK AO2 T00880062
PAUT 152315Z AUTO 31015G19KT 10SM BKN041 BKN046 09/06 A3004 RMK AO2 T00900063
PAUT 152255Z AUTO 30017G22KT 10SM BKN036 OVC041 09/06 A3004 RMK AO2 T00910063
PAUT 152235Z AUTO 31009KT 10SM SCT029 OVC034 09/06 A3005 RMK AO2 T00870061
PAUT 152215Z AUTO 30012KT 10SM OVC034 09/06 A3005 RMK AO2 T00860064
PAUT 152155Z AUTO 31014G21KT 10SM OVC034 09/06 A3005 RMK AO2 T00860063
PAUT 152135Z AUTO 30017G21KT 10SM BKN032 OVC038 08/06 A3005 RMK AO2 T00840060
PAUT 152120Z AUTO 31013KT 10SM SCT029 OVC035 09/06 A3005 RMK AO2 T00860062
PAUT 152055Z AUTO 30014G18KT 10SM BKN028 OVC033 09/06 A3005 RMK AO2 T00860058
PAUT 152035Z AUTO 29011KT 10SM OVC026 09/06 A3005 RMK AO2 T00850062
PAUT 152015Z AUTO 28013G16KT 10SM BKN021 OVC028 09/06 A3005 RMK AO2 T00850061
PAUT 151955Z AUTO 29016G19KT 10SM SCT010 BKN019 OVC025 08/06 A3005 RMK AO2 T00790063
PAUT 151935Z AUTO 30014KT 5SM BR SCT003 SCT009 OVC016 08/07 A3005 RMK AO2 T00750069
PAUT 151915Z AUTO 30012G18KT 2 1/2SM DZ SCT003 SCT010 OVC018 08/07 A3005 RMK AO2 VIS 1 1/4V5 T00810070
PAUT 151855Z AUTO 30006KT 10SM BKN018 OVC027 09/07 A3005 RMK AO2 T00860067
PAUT 151835Z AUTO 28005KT 10SM SCT018 BKN024 OVC033 09/07 A3004 RMK AO2 T00870070
PAUT 151815Z AUTO 30013G16KT 10SM BKN029 OVC034 09/07 A3004 RMK AO2 T00860065
PAUT 151755Z AUTO 31004KT 10SM OVC032 09/07 A3004 RMK AO2 T00890067 10092 20080
PAUT 151735Z AUTO 29008KT 10SM SCT027 OVC032 09/06 A3005 RMK AO2 T00910057
PAUT 151715Z AUTO 29007KT 10SM OVC030 09/06 A3004 RMK AO2 T00870059
PAUT 151655Z AUTO 29006KT 10SM BKN027 OVC034 09/07 A3005 RMK AO2 T00850067
PAUT 151635Z AUTO 30010KT 10SM OVC029 08/07 A3005 RMK AO2 T00800065
PAUT 151615Z AUTO 31012KT 10SM OVC029 09/07 A3004 RMK AO2 T00850065
PAUT 151555Z AUTO 31012KT 10SM OVC029 08/06 A3004 RMK AO2 T00840061
PAUT 151535Z AUTO 30015G18KT 10SM OVC029 08/07 A3004 RMK AO2 T00840065
PAUT 151515Z AUTO 30016G21KT 10SM OVC027 08/07 A3004 RMK AO2 T00830068
PAUT 151455Z AUTO 30014KT 10SM SCT023 OVC030 08/07 A3004 RMK AO2 T00820072
PAUT 151435Z AUTO 30014G20KT 10SM SCT023 OVC032 09/08 A3005 RMK AO2 T00850075
PAUT 151415Z AUTO 30013G17KT 10SM OVC036 09/08 A3005 RMK AO2 T00850075